D/T METAR WX W/DIR W/SPE G/SPE TEMP DEWP
19/03/19 03:20 EGPD 190320Z AUTO VRB02KT 9999 NCD 02/M01 Q1019 NOSIG N (0°) 2.3mph 2°C -1°C
19/03/19 02:50 EGPD 190250Z AUTO VRB01KT 9999 NCD 00/M01 Q1019 NOSIG N (0°) 1.2mph 0°C -1°C
19/03/19 02:20 EGPD 190220Z AUTO VRB02KT 9999 NCD 02/M00 Q1019 NOSIG N (0°) 2.3mph 2°C 0°C
19/03/19 01:50 EGPD 190150Z AUTO VRB01KT 9999 NCD 02/00 Q1019 NOSIG N (0°) 1.2mph 2°C 0°C
19/03/19 01:20 EGPD 190120Z AUTO VRB02KT 9999 NCD 02/01 Q1019 NOSIG N (0°) 2.3mph 2°C 1°C
19/03/19 00:50 EGPD 190050Z AUTO VRB02KT 9999 FEW048 02/01 Q1019 NOSIG N (0°) 2.3mph 2°C 1°C
19/03/19 00:20 EGPD 190020Z AUTO VRB03KT 9999 BKN046 02/01 Q1019 N (0°) 3.5mph 2°C 1°C
18/03/19 23:50 EGPD 182350Z AUTO 06002KT 9999 NCD 02/01 Q1019 ENE (60°) 2.3mph 2°C 1°C
18/03/19 23:20 EGPD 182320Z AUTO 22004KT 190V250 9999 NCD 02/01 Q1019 NOSIG SW (220°) 4.6mph 2°C 1°C
18/03/19 22:50 EGPD 182250Z AUTO 22003KT 9999 NCD 02/01 Q1019 NOSIG SW (220°) 3.5mph 2°C 1°C
18/03/19 22:20 EGPD 182220Z AUTO 13003KT 9999 NCD 03/02 Q1019 NOSIG SE (130°) 3.5mph 3°C 2°C
18/03/19 21:50 EGPD 182150Z AUTO VRB03KT 9999 NCD 03/01 Q1019 N (0°) 3.5mph 3°C 1°C
18/03/19 21:20 EGPD 182120Z AUTO 18004KT 150V210 9999 NCD 03/02 Q1019 NOSIG S (180°) 4.6mph 3°C 2°C
18/03/19 20:50 EGPD 182050Z AUTO 13004KT 9999 NCD 04/02 Q1019 NOSIG SE (130°) 4.6mph 4°C 2°C
18/03/19 20:20 EGPD 182020Z AUTO 18005KT 9999 NCD 03/02 Q1019 NOSIG S (180°) 5.8mph 3°C 2°C
18/03/19 19:50 EGPD 181950Z AUTO 16006KT 9999 NCD 04/03 Q1019 SSE (160°) 6.9mph 4°C 3°C
18/03/19 19:20 EGPD 181920Z AUTO 16005KT 9999 NCD 04/03 Q1018 NOSIG SSE (160°) 5.8mph 4°C 3°C
18/03/19 18:50 EGPD 181850Z AUTO 17005KT 9999 NCD 04/02 Q1018 S (170°) 5.8mph 4°C 2°C
18/03/19 18:20 EGPD 181820Z AUTO 16005KT 9999 NCD 05/03 Q1018 NOSIG SSE (160°) 5.8mph 5°C 3°C
18/03/19 17:20 EGPD 181720Z AUTO 15007KT 9999 NCD 07/03 Q1017 NOSIG SSE (150°) 8.1mph 7°C 3°C
18/03/19 16:50 EGPD 181650Z AUTO 16009KT 9999 NCD 07/03 Q1017 NOSIG SSE (160°) 10.4mph 7°C 3°C
18/03/19 15:50 EGPD 181550Z AUTO 15009KT 110V180 9999 NCD 08/02 Q1017 SSE (150°) 10.4mph 8°C 2°C
18/03/19 15:20 EGPD 181520Z AUTO 16009KT 9999 NCD 08/01 Q1017 NOSIG SSE (160°) 10.4mph 8°C 1°C
18/03/19 14:50 EGPD 181450Z AUTO 14010KT 110V170 9999 NCD 08/00 Q1016 NOSIG SE (140°) 11.5mph 8°C 0°C
18/03/19 14:20 EGPD 181420Z AUTO 15011KT 9999 NCD 09/M01 Q1016 NOSIG SSE (150°) 12.7mph 9°C -1°C
18/03/19 13:50 EGPD 181350Z AUTO 15010KT 9999 FEW046 09/M02 Q1016 SSE (150°) 11.5mph 9°C -2°C
18/03/19 13:20 EGPD 181320Z 15009KT 9999 FEW045 09/M02 Q1016 SSE (150°) 10.4mph 9°C -2°C
18/03/19 12:50 EGPD 181250Z 13009KT 9999 FEW045 08/M01 Q1016 SE (130°) 10.4mph 8°C -1°C
18/03/19 12:20 EGPD 181220Z AUTO 15005KT 060V200 9999 BKN042 09/M00 Q1016 NOSIG SSE (150°) 5.8mph 9°C 0°C
18/03/19 11:50 EGPD 181150Z AUTO 16005KT 120V210 9999 SCT040 09/M01 Q1016 SSE (160°) 5.8mph 9°C -1°C
18/03/19 11:20 EGPD 181120Z AUTO 21007KT 180V240 9999 SCT036 08/M01 Q1016 NOSIG SSW (210°) 8.1mph 8°C -1°C
18/03/19 10:50 EGPD 181050Z AUTO 26004KT 180V340 9999 NCD 08/M01 Q1015 NOSIG W (260°) 4.6mph 8°C -1°C
18/03/19 10:20 EGPD 181020Z AUTO 24004KT 170V320 9999 NCD 08/M00 Q1015 NOSIG WSW (240°) 4.6mph 8°C 0°C
18/03/19 09:50 EGPD 180950Z AUTO 26005KT 220V310 9999 NCD 07/M01 Q1015 W (260°) 5.8mph 7°C -1°C
18/03/19 09:20 EGPD 180920Z AUTO VRB01KT 9999 NCD 06/M01 Q1015 NOSIG N (0°) 1.2mph 6°C -1°C
18/03/19 08:50 EGPD 180850Z AUTO VRB02KT 9999 NCD 06/M01 Q1014 NOSIG N (0°) 2.3mph 6°C -1°C
18/03/19 08:20 EGPD 180820Z AUTO 05003KT 9999 NCD 04/M02 Q1014 NOSIG NE (50°) 3.5mph 4°C -2°C
18/03/19 07:50 EGPD 180750Z AUTO 04002KT 9999 NCD 04/M02 Q1014 NOSIG NE (40°) 2.3mph 4°C -2°C
18/03/19 07:20 EGPD 180720Z AUTO VRB01KT 9999 NCD 02/M02 Q1014 NOSIG N (0°) 1.2mph 2°C -2°C
18/03/19 06:50 EGPD 180650Z AUTO 26005KT 9999 NCD 02/M02 Q1013 NOSIG W (260°) 5.8mph 2°C -2°C
18/03/19 06:20 EGPD 180620Z AUTO 24007KT 9999 NCD 02/M02 Q1013 NOSIG WSW (240°) 8.1mph 2°C -2°C
18/03/19 05:50 EGPD 180550Z AUTO 27007KT 9999 NCD 02/M02 Q1013 NOSIG W (270°) 8.1mph 2°C -2°C
18/03/19 05:20 EGPD 180520Z AUTO 26007KT 9999 NCD 01/M03 Q1012 NOSIG W (260°) 8.1mph 1°C -3°C
18/03/19 04:50 EGPD 180450Z AUTO 28006KT 9999 NCD 02/M02 Q1012 NOSIG W (280°) 6.9mph 2°C -2°C
18/03/19 03:50 EGPD 180350Z AUTO 29008KT 9999 NCD 02/M02 Q1012 WNW (290°) 9.2mph 2°C -2°C
18/03/19 03:20 EGPD 180320Z AUTO 28009KT 9999 NCD 02/M02 Q1011 NOSIG W (280°) 10.4mph 2°C -2°C
18/03/19 02:50 EGPD 180250Z AUTO 29010KT 9999 NCD 03/M01 Q1011 NOSIG WNW (290°) 11.5mph 3°C -1°C
18/03/19 01:50 EGPD 180150Z AUTO 28009KT 9999 NCD 03/M01 Q1011 NOSIG W (280°) 10.4mph 3°C -1°C
18/03/19 01:20 EGPD 180120Z AUTO 29011KT 9999 NCD 03/M01 Q1010 NOSIG WNW (290°) 12.7mph 3°C -1°C
18/03/19 00:50 EGPD 180050Z AUTO 29010KT 9999 NCD 03/M01 Q1010 NOSIG WNW (290°) 11.5mph 3°C -1°C
18/03/19 00:20 EGPD 180020Z AUTO 30011KT 9999 NCD 03/M01 Q1010 NOSIG WNW (300°) 12.7mph 3°C -1°C
17/03/19 23:50 EGPD 172350Z AUTO 30013KT 9999 NCD 03/M00 Q1009 NOSIG WNW (300°) 15.0mph 3°C 0°C
17/03/19 23:20 EGPD 172320Z AUTO 29013KT 9999 NCD 03/M00 Q1009 NOSIG WNW (290°) 15.0mph 3°C 0°C
17/03/19 22:50 EGPD 172250Z AUTO 29013KT 9999 NCD 03/M01 Q1008 NOSIG WNW (290°) 15.0mph 3°C -1°C
17/03/19 22:20 EGPD 172220Z AUTO 30011KT 9999 NCD 03/M01 Q1008 NOSIG WNW (300°) 12.7mph 3°C -1°C
17/03/19 21:50 EGPD 172150Z AUTO 30013KT 9999 -RA FEW029 SCT048 04/M00 Q1008 NOSIG -RA WNW (300°) 15.0mph 4°C 0°C
17/03/19 21:20 EGPD 172120Z AUTO 30013KT 9999 NCD 03/M01 Q1008 NOSIG WNW (300°) 15.0mph 3°C -1°C
17/03/19 20:50 EGPD 172050Z 30013KT CAVOK 03/00 Q1007 WNW (300°) 15.0mph 3°C 0°C
17/03/19 20:20 EGPD 172020Z 31021KT 9999 VCSH FEW018 BKN028 03/M01 Q1007 NOSIG VCSH NW (310°) 24.2mph 3°C -1°C
17/03/19 19:50 EGPD 171950Z 31014KT 9999 FEW037 04/M01 Q1006 NOSIG NW (310°) 16.1mph 4°C -1°C
17/03/19 19:20 EGPD 171920Z AUTO 30014KT 9999 NCD 04/M01 Q1005 NOSIG WNW (300°) 16.1mph 4°C -1°C
17/03/19 18:50 EGPD 171850Z AUTO 30014KT 9999 NCD 04/00 Q1004 WNW (300°) 16.1mph 4°C 0°C
17/03/19 18:20 EGPD 171820Z 31017KT 9999 VCSH FEW025 05/00 Q1004 VCSH NW (310°) 19.6mph 5°C 0°C
17/03/19 17:50 EGPD 171750Z 32020KT 9999 FEW025 05/00 Q1003 NW (320°) 23.0mph 5°C 0°C
17/03/19 17:20 EGPD 171720Z 32019KT 9999 VCSH FEW042TCU 05/00 Q1002 VCSH NW (320°) 21.9mph 5°C 0°C
17/03/19 16:50 EGPD 171650Z 32021KT 9999 VCSH FEW016 05/01 Q1001 VCSH NW (320°) 24.2mph 5°C 1°C
17/03/19 16:20 EGPD 171620Z 31017KT 9999 VCSH SCT016TCU 04/01 Q1001 TEMPO SHRA VCSH NW (310°) 19.6mph 4°C 1°C
17/03/19 15:50 EGPD 171550Z 33017KT 9999 VCSH SCT030TCU SCT039 05/01 Q1000 TEMPO SHRAGS VCSH NNW (330°) 19.6mph 5°C 1°C
17/03/19 15:20 EGPD 171520Z 33021G32KT 9999 VCSH SCT027 07/01 Q0999 BECMG 33015KT VCSH NNW (330°) 24.2mph 36.8mph 7°C 1°C
17/03/19 14:50 EGPD 171450Z 33025G36KT 9999 VCSH SCT027 07/01 Q0999 VCSH NNW (330°) 28.8mph 41.4mph 7°C 1°C
17/03/19 14:20 EGPD 171420Z 33027G38KT 9999 VCSH SCT027 07/02 Q0998 VCSH NNW (330°) 31.1mph 43.7mph 7°C 2°C
17/03/19 13:50 EGPD 171350Z 32026KT 9999 VCSH FEW026TCU SCT038 06/02 Q0997 VCSH NW (320°) 29.9mph 6°C 2°C
17/03/19 13:20 EGPD 171320Z 32019KT 9999 VCSH BKN023 07/03 Q0996 TEMPO SHRA VCSH NW (320°) 21.9mph 7°C 3°C
17/03/19 12:50 EGPD 171250Z AUTO 32031KT 9999 -RA BKN020 07/02 Q0995 TEMPO SHRA BKN012 -RA NW (320°) 35.7mph 7°C 2°C
17/03/19 12:20 EGPD 171220Z 31018KT 9999 VCSH SCT017CB 06/03 Q0995 RESHRA NOSIG VCSH NW (310°) 20.7mph 6°C 3°C
17/03/19 11:50 EGPD 171150Z 31020KT 7000 -SHRA BKN016TCU 07/03 Q0994 TEMPO SHRA BKN012 -SHRA NW (310°) 23.0mph 7°C 3°C
17/03/19 11:20 EGPD 171120Z 31020KT 9999 VCSH BKN016 07/02 Q0993 VCSH NW (310°) 23.0mph 7°C 2°C
17/03/19 10:50 EGPD 171050Z AUTO 31022G34KT 9999 BKN016/// //////CB 06/02 Q0992 NOSIG NW (310°) 25.3mph 39.1mph 6°C 2°C
17/03/19 10:20 EGPD 171020Z AUTO 30020G33KT 9999 BKN019/// BKN024/// //////TCU 06/02 Q0991 NOSIG WNW (300°) 23.0mph 38.0mph 6°C 2°C
17/03/19 09:20 EGPD 170920Z AUTO 29015KT 9999 FEW021/// //////TCU 05/01 Q0990 NOSIG WNW (290°) 17.3mph 5°C 1°C
17/03/19 08:50 EGPD 170850Z AUTO 29018KT 9999 NCD 04/01 Q0990 WNW (290°) 20.7mph 4°C 1°C
17/03/19 08:20 EGPD 170820Z AUTO 29017KT 9999 //////TCU 04/01 Q0989 NOSIG WNW (290°) 19.6mph 4°C 1°C
17/03/19 07:50 EGPD 170750Z AUTO 28015KT 9999 NCD 03/00 Q0989 NOSIG W (280°) 17.3mph 3°C 0°C
17/03/19 07:20 EGPD 170720Z AUTO 29016KT 9999 NCD 03/00 Q0988 WNW (290°) 18.4mph 3°C 0°C
17/03/19 06:50 EGPD 170650Z AUTO 29013KT 250V320 9999 BKN019 03/00 Q0988 NOSIG WNW (290°) 15.0mph 3°C 0°C
17/03/19 06:20 EGPD 170620Z AUTO 29016KT 9999 NCD 03/M00 Q0988 WNW (290°) 18.4mph 3°C 0°C
17/03/19 05:50 EGPD 170550Z AUTO 29016KT 9999 FEW025 SCT035 03/M00 Q0987 WNW (290°) 18.4mph 3°C 0°C
17/03/19 05:20 EGPD 170520Z AUTO 29018KT 9999 SCT031 03/M00 Q0987 NOSIG WNW (290°) 20.7mph 3°C 0°C
17/03/19 04:50 EGPD 170450Z AUTO 29017G27KT 9999 NCD 03/M01 Q0986 NOSIG WNW (290°) 19.6mph 31.1mph 3°C -1°C
17/03/19 04:20 EGPD 170420Z AUTO 28016KT 9999 NCD 03/M01 Q0986 W (280°) 18.4mph 3°C -1°C
17/03/19 03:50 EGPD 170350Z AUTO 29016KT 9999 SCT038 03/M01 Q0986 NOSIG WNW (290°) 18.4mph 3°C -1°C
17/03/19 03:20 EGPD 170320Z AUTO 29017KT 9999 FEW045 03/M01 Q0985 NOSIG WNW (290°) 19.6mph 3°C -1°C
17/03/19 02:50 EGPD 170250Z AUTO 29016KT 9999 NCD 03/M00 Q0985 NOSIG WNW (290°) 18.4mph 3°C 0°C
17/03/19 02:20 EGPD 170220Z AUTO 28015KT 9999 NCD 03/M01 Q0985 NOSIG W (280°) 17.3mph 3°C -1°C
17/03/19 01:50 EGPD 170150Z AUTO 28017KT 9999 NCD 03/M01 Q0985 NOSIG W (280°) 19.6mph 3°C -1°C
17/03/19 01:20 EGPD 170120Z AUTO 28014KT 9999 NCD 03/M00 Q0985 W (280°) 16.1mph 3°C 0°C
17/03/19 00:50 EGPD 170050Z AUTO 28015KT 9999 NCD 03/M00 Q0984 NOSIG W (280°) 17.3mph 3°C 0°C
17/03/19 00:20 EGPD 170020Z AUTO 28015KT 9999 FEW021/// //////TCU 02/M00 Q0984 NOSIG W (280°) 17.3mph 2°C 0°C
16/03/19 23:50 EGPD 162350Z AUTO 28014KT 9999 SCT019 02/M00 Q0984 NOSIG W (280°) 16.1mph 2°C 0°C
16/03/19 23:20 EGPD 162320Z AUTO 28014KT 9999 SCT018 BKN035 02/M00 Q0984 NOSIG W (280°) 16.1mph 2°C 0°C
16/03/19 22:50 EGPD 162250Z AUTO 28014KT 9999 BKN016/// BKN042/// //////TCU 02/00 Q0984 W (280°) 16.1mph 2°C 0°C
16/03/19 22:20 EGPD 162220Z 28014KT 9999 SCT015 SCT023 02/00 Q0984 W (280°) 16.1mph 2°C 0°C
16/03/19 21:50 EGPD 162150Z AUTO 29014KT 9999 BKN014/// //////TCU 02/00 Q0983 WNW (290°) 16.1mph 2°C 0°C
16/03/19 21:20 EGPD 162120Z 30015KT 9999 SCT013 SCT020 02/00 Q0983 WNW (300°) 17.3mph 2°C 0°C
16/03/19 20:50 EGPD 162050Z 30015KT 9999 -RA BKN011 02/01 Q0983 BECMG SCT015 -RA WNW (300°) 17.3mph 2°C 1°C
16/03/19 20:20 EGPD 162020Z 31015KT 8000 -RA BKN008 BKN025 01/00 Q0982 BECMG SCT012 -RA NW (310°) 17.3mph 1°C 0°C
16/03/19 19:50 EGPD 161950Z 31017KT 8000 -RA BKN008 BKN025 01/01 Q0982 -RA NW (310°) 19.6mph 1°C 1°C
16/03/19 19:20 EGPD 161920Z 31017KT 8000 -RA BKN008 BKN013 01/00 Q0982 BECMG SCT008 BKN015 -RA NW (310°) 19.6mph 1°C 0°C
16/03/19 18:50 EGPD 161850Z 32015KT 4500 -RASN OVC006 01/00 Q0981 NOSIG -RA -SN NW (320°) 17.3mph 1°C 0°C
16/03/19 18:20 EGPD 161820Z 32014KT 2900 -RASN OVC006 01/00 Q0981 RESN -RA -SN NW (320°) 16.1mph 1°C 0°C
16/03/19 17:50 EGPD 161750Z 32015KT 2000 SN OVC004 01/00 Q0981 TEMPO 4000 -SN SN NW (320°) 17.3mph 1°C 0°C
16/03/19 17:20 EGPD 161720Z 33013KT 3900 -SN BKN007 OVC017 01/00 Q0981 -SN NNW (330°) 15.0mph 1°C 0°C
16/03/19 16:50 EGPD 161650Z 33012KT 5000 -SN BKN005 01/00 Q0981 TEMPO 4000 RASN BKN004 -SN NNW (330°) 13.8mph 1°C 0°C
16/03/19 16:20 EGPD 161620Z 35009KT 2500 -RASN OVC004 01/00 Q0981 RESN RERA TEMPO RASN -RA -SN RA N (350°) 10.4mph 1°C 0°C
16/03/19 15:50 EGPD 161550Z 35007KT 1400 R34/P1500 RASN OVC004 01/00 Q0981 RESN RERA SN RA RA N (350°) 8.1mph 1°C 0°C
16/03/19 15:20 EGPD 161520Z 01006KT 2000 RASN OVC004 01/01 Q0982 TEMPO 4000 -RASN RA SN N (10°) 6.9mph 1°C 1°C
16/03/19 14:50 EGPD 161450Z 02007KT 5000 -SN BKN004 01/01 Q0983 TEMPO BKN005 -SN NNE (20°) 8.1mph 1°C 1°C
16/03/19 14:20 EGPD 161420Z 04007KT 3200 -SN BR BKN003 01/00 Q0983 RESN TEMPO 5000 BKN005 -SN BR NE (40°) 8.1mph 1°C 0°C
16/03/19 13:50 EGPD 161350Z 05006KT 1900 SN BKN003 01/00 Q0984 RESN TEMPO BKN003 SN NE (50°) 6.9mph 1°C 0°C
16/03/19 13:20 EGPD 161320Z 07006KT 2000 SN BKN005 OVC012 01/01 Q0985 RESN RERA TEMPO BKN003 SN RA ENE (70°) 6.9mph 1°C 1°C
16/03/19 12:50 EGPD 161250Z 09009KT 4500 RASN BKN006 OVC016 02/01 Q0986 RESN REDZ NOSIG RA SN E (90°) 10.4mph 2°C 1°C
16/03/19 12:20 EGPD 161220Z 09007KT 4600 RADZ BKN006 02/01 Q0987 REDZ RA DZ E (90°) 8.1mph 2°C 1°C
16/03/19 11:50 EGPD 161150Z 11007KT 080V140 6000 -RA BKN008 OVC018 02/01 Q0988 -RA ESE (110°) 8.1mph 2°C 1°C
16/03/19 11:20 EGPD 161120Z 12006KT 080V150 7000 -RA BKN008 BKN020 OVC035 03/01 Q0988 TEMPO 4000 RADZ -RA ESE (120°) 6.9mph 3°C 1°C
16/03/19 10:50 EGPD 161050Z AUTO 13009KT 7000 -RA SCT008 BKN011 OVC041 03/01 Q0989 TEMPO 4000 RADZ BKN008 -RA SE (130°) 10.4mph 3°C 1°C
16/03/19 10:20 EGPD 161020Z AUTO 15007KT 8000 -RA SCT012 SCT031 BKN039 03/01 Q0990 BECMG BKN012 -RA SSE (150°) 8.1mph 3°C 1°C
16/03/19 09:50 EGPD 160950Z AUTO 17006KT 9999 NCD 03/01 Q0990 BECMG BKN012 S (170°) 6.9mph 3°C 1°C
16/03/19 09:20 EGPD 160920Z AUTO VRB02KT 9999 NCD 03/00 Q0991 BECMG BKN012 N (0°) 2.3mph 3°C 0°C
16/03/19 08:50 EGPD 160850Z AUTO VRB03KT 9999 NCD 03/01 Q0992 BECMG BKN012 N (0°) 3.5mph 3°C 1°C
16/03/19 08:20 EGPD 160820Z AUTO 25007KT 9999 NCD 03/01 Q0992 WSW (250°) 8.1mph 3°C 1°C
16/03/19 07:50 EGPD 160750Z AUTO 23010KT 9999 NCD 03/00 Q0993 SW (230°) 11.5mph 3°C 0°C
16/03/19 07:20 EGPD 160720Z AUTO 22011KT 9999 NCD 03/M00 Q0993 SW (220°) 12.7mph 3°C 0°C
16/03/19 06:50 EGPD 160650Z AUTO 22011KT 9999 NCD 03/M01 Q0993 BECMG BKN012 SW (220°) 12.7mph 3°C -1°C
16/03/19 06:20 EGPD 160620Z AUTO VRB03KT 9999 NCD 03/M02 Q0994 BECMG BKN012 N (0°) 3.5mph 3°C -2°C
16/03/19 05:50 EGPD 160550Z AUTO 16006KT 9999 NCD 03/M02 Q0994 NOSIG SSE (160°) 6.9mph 3°C -2°C
16/03/19 05:20 EGPD 160520Z AUTO 12006KT 9999 NCD 03/M02 Q0995 NOSIG ESE (120°) 6.9mph 3°C -2°C
16/03/19 04:50 EGPD 160450Z AUTO VRB03KT 9999 NCD 03/M02 Q0995 NOSIG N (0°) 3.5mph 3°C -2°C
16/03/19 04:20 EGPD 160420Z AUTO 20005KT 120V250 9999 NCD 04/M02 Q0995 NOSIG SSW (200°) 5.8mph 4°C -2°C
16/03/19 03:50 EGPD 160350Z AUTO 20005KT 150V240 9999 NCD 04/M02 Q0996 SSW (200°) 5.8mph 4°C -2°C
16/03/19 03:20 EGPD 160320Z AUTO 26007KT 9999 NCD 04/M02 Q0996 W (260°) 8.1mph 4°C -2°C
16/03/19 02:50 EGPD 160250Z AUTO 24007KT 9999 NCD 04/M02 Q0996 WSW (240°) 8.1mph 4°C -2°C
16/03/19 02:20 EGPD 160220Z AUTO 23010KT 9999 NCD 04/M02 Q0997 SW (230°) 11.5mph 4°C -2°C
16/03/19 01:50 EGPD 160150Z AUTO 24006KT 190V280 9999 NCD 04/M03 Q0997 NOSIG WSW (240°) 6.9mph 4°C -3°C
16/03/19 01:20 EGPD 160120Z AUTO 25012KT 9999 NCD 04/M02 Q0997 NOSIG WSW (250°) 13.8mph 4°C -2°C